createdAt,value
2019-02-24T05:30:20.946Z,79.70
2019-02-24T05:33:02.905Z,79.60
2019-02-24T05:35:43.428Z,79.70
2019-02-24T05:38:23.141Z,79.30
2019-02-24T05:41:06.861Z,79.70
2019-02-24T05:43:46.241Z,79.70
2019-02-24T05:46:26.357Z,79.60
2019-02-24T05:49:06.355Z,79.80
2019-02-24T05:51:46.477Z,79.90
2019-02-24T05:54:26.538Z,80.10
2019-02-24T05:57:06.435Z,80.00
2019-02-24T05:59:54.901Z,80.40
2019-02-24T06:02:27.553Z,80.90
2019-02-24T06:05:07.570Z,80.60
2019-02-24T06:07:47.538Z,81.20
2019-02-24T06:10:27.534Z,81.30
2019-02-24T06:13:07.609Z,81.10
2019-02-24T06:15:47.823Z,81.50
2019-02-24T06:18:27.886Z,81.70
2019-02-24T06:21:08.016Z,81.80
2019-02-24T06:23:48.126Z,81.80
2019-02-24T06:26:30.152Z,81.90
2019-02-24T06:29:09.510Z,82.50
2019-02-24T06:31:49.453Z,82.10
2019-02-24T06:34:29.464Z,81.80
2019-02-24T06:37:09.434Z,81.50
2019-02-24T06:39:49.428Z,81.20
2019-02-24T06:42:29.405Z,80.70
2019-02-24T06:45:09.410Z,79.90
2019-02-24T06:47:49.370Z,79.90
2019-02-24T06:50:35.325Z,79.20
2019-02-24T06:53:12.337Z,78.40
2019-02-24T06:55:52.414Z,78.80
2019-02-24T06:58:32.495Z,78.30
2019-02-24T07:01:12.485Z,77.80
2019-02-24T07:03:54.478Z,77.30
2019-02-24T07:06:33.642Z,76.10
2019-02-24T07:09:13.587Z,75.90
2019-02-24T07:11:53.520Z,75.80
2019-02-24T07:14:33.563Z,75.70
2019-02-24T07:17:13.352Z,76.40
2019-02-24T07:19:53.372Z,75.70
2019-02-24T07:22:33.260Z,74.70
2019-02-24T07:25:12.554Z,74.50
2019-02-24T07:27:51.845Z,73.70
2019-02-24T07:30:31.711Z,73.60
2019-02-24T07:33:12.458Z,72.90
2019-02-24T07:35:52.536Z,71.80
2019-02-24T07:38:32.490Z,71.70
2019-02-24T07:41:12.457Z,70.40
2019-02-24T07:43:52.226Z,71.10
2019-02-24T07:46:32.213Z,69.80
2019-02-24T07:49:12.326Z,69.60
2019-02-24T07:51:52.164Z,69.00
2019-02-24T07:54:32.031Z,69.00
2019-02-24T07:57:11.919Z,68.60
2019-02-24T07:59:51.616Z,68.80
2019-02-24T08:02:31.529Z,68.30
2019-02-24T08:05:11.627Z,66.80
2019-02-24T08:07:51.710Z,66.80
2019-02-24T08:10:31.592Z,67.40
2019-02-24T08:13:11.642Z,67.20
2019-02-24T08:15:50.937Z,66.80
2019-02-24T08:18:30.850Z,66.60
2019-02-24T08:21:10.025Z,66.40
2019-02-24T08:23:50.102Z,65.60
2019-02-24T08:26:30.147Z,64.50
2019-02-24T08:29:09.290Z,65.40
2019-02-24T08:31:49.429Z,65.10
2019-02-24T08:34:29.322Z,65.60
2019-02-24T08:37:09.241Z,65.20
2019-02-24T08:39:49.261Z,65.00
2019-02-24T08:42:29.240Z,65.00
2019-02-24T08:45:09.101Z,65.00
2019-02-24T08:47:49.068Z,64.70
2019-02-24T08:50:29.126Z,64.20
2019-02-24T08:53:09.117Z,65.30
2019-02-24T08:55:49.130Z,64.90
2019-02-24T08:58:28.982Z,64.70
2019-02-24T09:01:09.020Z,65.20
2019-02-24T09:03:49.105Z,65.10
2019-02-24T09:06:29.151Z,64.30
2019-02-24T09:09:09.107Z,64.30
2019-02-24T09:11:49.162Z,64.90
2019-02-24T09:14:29.007Z,64.80
2019-02-24T09:17:08.919Z,65.70
2019-02-24T09:19:48.870Z,66.40
2019-02-24T09:22:28.862Z,67.50
2019-02-24T09:25:08.891Z,67.50
2019-02-24T09:27:48.906Z,67.80
2019-02-24T09:30:28.982Z,68.30
2019-02-24T09:33:08.969Z,67.40
2019-02-24T09:35:51.145Z,67.30
2019-02-24T09:38:35.337Z,68.50
2019-02-24T09:41:15.088Z,68.50
2019-02-24T09:43:55.081Z,68.20
2019-02-24T09:46:36.809Z,69.00
2019-02-24T09:49:16.993Z,70.10
2019-02-24T09:51:56.917Z,71.00
2019-02-24T09:54:36.874Z,69.80
2019-02-24T09:57:16.909Z,70.30
2019-02-24T09:59:56.749Z,69.30
2019-02-24T10:02:36.673Z,69.90
2019-02-24T10:05:16.772Z,70.10
2019-02-24T10:07:56.733Z,70.70
2019-02-24T10:10:36.869Z,68.80
2019-02-24T10:13:16.875Z,68.00
2019-02-24T10:15:56.790Z,68.90
2019-02-24T10:18:36.831Z,69.10
2019-02-24T10:21:16.925Z,69.70
2019-02-24T10:23:57.681Z,70.60
2019-02-24T10:26:37.597Z,67.70
2019-02-24T10:29:17.595Z,68.20
2019-02-24T10:31:57.583Z,66.80
2019-02-24T10:34:37.393Z,67.60
2019-02-24T10:37:17.442Z,66.20
2019-02-24T10:39:57.464Z,65.50
2019-02-24T10:42:37.497Z,66.00
2019-02-24T10:45:17.465Z,66.90
2019-02-24T10:47:56.728Z,68.50
2019-02-24T10:50:36.779Z,66.70
2019-02-24T10:53:16.674Z,68.30
2019-02-24T10:55:56.634Z,68.50
2019-02-24T10:58:36.825Z,68.30
2019-02-24T11:01:16.649Z,68.70
2019-02-24T11:03:56.701Z,66.80
2019-02-24T11:06:36.745Z,68.20
2019-02-24T11:09:16.706Z,69.20
2019-02-24T11:11:56.549Z,70.90
2019-02-24T11:14:36.598Z,70.80
2019-02-24T11:17:15.850Z,70.00
2019-02-24T11:19:55.869Z,71.40
2019-02-24T11:22:36.698Z,70.60
2019-02-24T11:25:16.717Z,70.90
2019-02-24T11:27:56.659Z,70.10
2019-02-24T11:30:36.598Z,69.90
2019-02-24T11:33:16.503Z,71.80
2019-02-24T11:35:56.589Z,69.80
2019-02-24T11:38:36.669Z,69.60
2019-02-24T11:41:16.662Z,67.90
2019-02-24T11:43:56.630Z,67.90
2019-02-24T11:46:36.721Z,67.20
2019-02-24T11:49:16.875Z,65.80
2019-02-24T11:52:03.700Z,66.80
2019-02-24T11:54:38.915Z,66.60
2019-02-24T11:57:18.904Z,66.70
2019-02-24T12:00:01.813Z,66.20
2019-02-24T12:02:42.122Z,66.80
2019-02-24T12:05:29.850Z,66.30
2019-02-24T12:08:10.084Z,66.50
2019-02-24T12:10:50.032Z,68.30
2019-02-24T12:13:29.960Z,67.00
2019-02-24T12:16:10.986Z,65.40
2019-02-24T12:18:50.313Z,66.20
2019-02-24T12:21:31.234Z,67.00
2019-02-24T12:24:10.375Z,67.60
2019-02-24T12:26:50.177Z,68.50
2019-02-24T12:29:30.212Z,68.70
2019-02-24T12:32:10.202Z,69.20
2019-02-24T12:34:49.992Z,69.40
2019-02-24T12:37:30.022Z,69.20
2019-02-24T12:40:10.214Z,67.00
2019-02-24T12:42:50.239Z,67.50
2019-02-24T12:45:30.020Z,67.30
2019-02-24T12:48:09.285Z,67.10
2019-02-24T12:50:49.162Z,68.10
2019-02-24T12:53:29.155Z,67.70
2019-02-24T12:56:09.200Z,67.90
2019-02-24T12:58:49.034Z,68.20
2019-02-24T13:01:28.993Z,68.60
2019-02-24T13:04:09.002Z,67.90
2019-02-24T13:06:49.088Z,68.60
2019-02-24T13:09:29.031Z,68.60
2019-02-24T13:12:09.027Z,68.80
2019-02-24T13:14:48.942Z,69.80
2019-02-24T13:17:28.931Z,69.20
2019-02-24T13:20:09.986Z,69.90
2019-02-24T13:22:54.037Z,69.90
2019-02-24T13:25:34.022Z,71.10
2019-02-24T13:28:14.109Z,71.90
2019-02-24T13:30:54.117Z,71.10
2019-02-24T13:33:34.218Z,70.20
2019-02-24T13:36:13.488Z,70.60
2019-02-24T13:38:53.550Z,71.30
2019-02-24T13:41:33.491Z,70.90
2019-02-24T13:44:13.611Z,70.70
2019-02-24T13:46:53.735Z,69.80
2019-02-24T13:49:33.950Z,70.80
2019-02-24T13:52:13.093Z,71.40
2019-02-24T13:54:52.981Z,70.70
2019-02-24T13:57:33.065Z,71.70
2019-02-24T14:00:12.309Z,71.80
2019-02-24T14:02:52.397Z,71.70
2019-02-24T14:05:32.533Z,71.10
2019-02-24T14:08:12.537Z,70.60
2019-02-24T14:10:52.645Z,68.40
2019-02-24T14:13:32.642Z,64.70
2019-02-24T14:16:12.713Z,66.10
2019-02-24T14:18:52.434Z,67.70
2019-02-24T14:21:31.637Z,67.30
2019-02-24T14:24:11.554Z,65.50
2019-02-24T14:26:51.562Z,64.90
2019-02-24T14:29:31.693Z,64.00
2019-02-24T14:32:11.659Z,62.20
2019-02-24T14:34:51.766Z,61.70
2019-02-24T14:37:31.771Z,60.00
2019-02-24T14:40:11.683Z,60.60
2019-02-24T14:42:51.704Z,60.70
2019-02-24T14:45:31.570Z,60.40
2019-02-24T14:48:11.573Z,59.00
2019-02-24T14:50:51.586Z,59.50
2019-02-24T14:53:31.376Z,59.50
2019-02-24T14:56:11.530Z,58.80
2019-02-24T14:58:51.371Z,59.90
2019-02-24T15:01:31.586Z,60.20
2019-02-24T15:04:11.490Z,59.70
2019-02-24T15:06:51.821Z,61.40
2019-02-24T15:09:31.730Z,60.10
2019-02-24T15:12:12.625Z,60.00
2019-02-24T15:14:52.812Z,60.50
2019-02-24T15:17:33.021Z,61.50
2019-02-24T15:20:12.802Z,61.70
2019-02-24T15:22:52.127Z,60.30
2019-02-24T15:25:32.300Z,60.40
2019-02-24T15:28:12.395Z,59.80
2019-02-24T15:30:52.467Z,59.40
2019-02-24T15:33:32.557Z,59.50
2019-02-24T15:36:12.808Z,60.20
2019-02-24T15:38:52.584Z,58.90
2019-02-24T15:41:32.922Z,58.70
2019-02-24T15:44:12.696Z,57.90
2019-02-24T15:46:52.749Z,58.30
2019-02-24T15:49:32.964Z,58.60
2019-02-24T15:52:12.925Z,58.30
2019-02-24T15:54:53.621Z,58.30
2019-02-24T15:57:33.738Z,58.30
2019-02-24T16:00:13.718Z,58.70
2019-02-24T16:03:01.023Z,59.60
2019-02-24T16:05:35.498Z,60.70
2019-02-24T16:08:15.505Z,62.00
2019-02-24T16:10:55.474Z,62.60
2019-02-24T16:13:35.593Z,63.50
2019-02-24T16:16:15.533Z,63.80
2019-02-24T16:18:55.598Z,64.40
2019-02-24T16:21:35.551Z,66.20
2019-02-24T16:24:15.498Z,65.90
2019-02-24T16:26:55.554Z,68.50
2019-02-24T16:29:35.587Z,68.70
2019-02-24T16:32:16.608Z,69.90
2019-02-24T16:34:56.393Z,69.20
2019-02-24T16:37:36.273Z,68.80
2019-02-24T16:40:16.441Z,69.40
2019-02-24T16:42:56.445Z,69.20
2019-02-24T16:45:36.792Z,69.20
2019-02-24T16:48:16.562Z,70.50
2019-02-24T16:50:56.594Z,70.50
2019-02-24T16:53:36.390Z,71.70
2019-02-24T16:56:20.436Z,71.20
2019-02-24T16:59:00.386Z,71.40
2019-02-24T17:01:40.257Z,71.50
2019-02-24T17:04:20.293Z,71.50
2019-02-24T17:07:00.283Z,71.70
2019-02-24T17:09:40.288Z,72.40
2019-02-24T17:12:20.254Z,72.50
2019-02-24T17:15:00.362Z,72.20
2019-02-24T17:17:40.189Z,71.50
2019-02-24T17:20:20.325Z,72.00
2019-02-24T17:23:00.397Z,72.00
2019-02-24T17:25:40.368Z,73.00
2019-02-24T17:28:21.200Z,72.90
2019-02-24T17:31:00.994Z,73.10
2019-02-24T17:33:41.009Z,73.30
2019-02-24T17:36:20.954Z,73.90
2019-02-24T17:39:00.795Z,74.10
2019-02-24T17:41:40.857Z,74.10
2019-02-24T17:44:20.806Z,73.70
2019-02-24T17:47:00.841Z,74.20
2019-02-24T17:49:40.738Z,75.70
2019-02-24T17:52:20.390Z,75.30
2019-02-24T17:54:59.607Z,76.20
2019-02-24T17:57:39.711Z,77.10
2019-02-24T18:00:19.727Z,76.50
2019-02-24T18:02:59.679Z,76.70
2019-02-24T18:05:39.685Z,76.80
2019-02-24T18:08:27.928Z,76.90
2019-02-24T18:11:00.997Z,76.30
2019-02-24T18:13:41.120Z,76.50
2019-02-24T18:16:21.163Z,76.70
2019-02-24T18:19:01.215Z,77.00
2019-02-24T18:21:41.261Z,76.80
2019-02-24T18:24:21.201Z,77.00
2019-02-24T18:27:01.317Z,77.60
2019-02-24T18:29:41.330Z,77.80
2019-02-24T18:32:21.328Z,78.00
2019-02-24T18:35:01.204Z,77.80
2019-02-24T18:37:41.190Z,77.80
2019-02-24T18:40:21.081Z,77.80
2019-02-24T18:43:01.171Z,78.20
2019-02-24T18:45:41.193Z,78.90
2019-02-24T18:48:21.218Z,79.10
2019-02-24T18:51:01.182Z,79.30
2019-02-24T18:53:41.043Z,79.30
2019-02-24T18:56:21.108Z,79.60
2019-02-24T18:59:01.133Z,79.60
2019-02-24T19:01:41.119Z,79.40
2019-02-24T19:04:21.161Z,79.90
2019-02-24T19:07:01.164Z,80.10
2019-02-24T19:09:40.546Z,80.30
2019-02-24T19:12:20.505Z,80.40
2019-02-24T19:15:00.534Z,81.10
2019-02-24T19:17:40.510Z,82.10
2019-02-24T19:20:20.553Z,82.50
2019-02-24T19:23:00.216Z,83.20
2019-02-24T19:25:40.317Z,83.10
2019-02-24T19:28:20.286Z,83.60
2019-02-24T19:31:00.378Z,83.30
2019-02-24T19:33:41.352Z,84.30
2019-02-24T19:36:21.430Z,83.80
2019-02-24T19:39:01.386Z,83.80
2019-02-24T19:41:41.429Z,84.10
2019-02-24T19:44:21.529Z,83.20
2019-02-24T19:47:01.489Z,83.30
2019-02-24T19:49:41.577Z,83.70
2019-02-24T19:52:21.325Z,83.70
2019-02-24T19:55:01.371Z,84.40
2019-02-24T19:57:41.352Z,84.60
2019-02-24T20:00:21.181Z,84.90
2019-02-24T20:03:01.048Z,85.10
2019-02-24T20:05:40.464Z,85.80
2019-02-24T20:08:20.442Z,86.50
2019-02-24T20:10:59.733Z,85.70
2019-02-24T20:13:39.858Z,84.80
2019-02-24T20:16:19.910Z,84.70
2019-02-24T20:19:00.081Z,83.80
2019-02-24T20:21:40.203Z,83.00
2019-02-24T20:24:20.084Z,83.90
2019-02-24T20:26:59.926Z,85.50
2019-02-24T20:29:40.045Z,86.20
2019-02-24T20:32:19.921Z,86.30
2019-02-24T20:34:59.938Z,85.80
2019-02-24T20:37:39.959Z,85.90
2019-02-24T20:40:20.071Z,86.50
2019-02-24T20:42:59.386Z,86.10
2019-02-24T20:45:39.305Z,85.30
2019-02-24T20:48:19.336Z,84.20
2019-02-24T20:50:58.493Z,84.70
2019-02-24T20:53:37.774Z,84.70
2019-02-24T20:56:17.763Z,84.90
2019-02-24T20:58:57.836Z,84.80
2019-02-24T21:01:37.931Z,84.10
2019-02-24T21:04:18.157Z,83.40
2019-02-24T21:06:58.237Z,82.80
2019-02-24T21:09:38.141Z,81.50
2019-02-24T21:12:18.010Z,78.80
2019-02-24T21:14:58.018Z,77.80
2019-02-24T21:17:37.910Z,76.90
2019-02-24T21:20:18.754Z,77.30
2019-02-24T21:22:58.768Z,78.60
2019-02-24T21:25:38.929Z,79.80
2019-02-24T21:28:18.898Z,80.50
2019-02-24T21:30:58.573Z,80.30
2019-02-24T21:33:38.466Z,78.50
2019-02-24T21:36:18.361Z,76.90
2019-02-24T21:38:58.361Z,76.30
2019-02-24T21:41:38.309Z,75.80
2019-02-24T21:44:18.445Z,75.70
2019-02-24T21:46:58.755Z,76.50
2019-02-24T21:49:38.549Z,76.90
2019-02-24T21:52:18.444Z,77.80
2019-02-24T21:54:58.495Z,78.30
2019-02-24T21:57:38.600Z,77.50
2019-02-24T22:00:18.733Z,78.20
2019-02-24T22:02:58.910Z,78.10
2019-02-24T22:05:39.029Z,78.30
2019-02-24T22:08:19.072Z,78.90
2019-02-24T22:10:59.167Z,79.20
2019-02-24T22:13:39.053Z,79.40
2019-02-24T22:16:18.874Z,79.30
2019-02-24T22:18:58.811Z,79.70
2019-02-24T22:21:38.898Z,79.50
2019-02-24T22:24:19.053Z,80.00
2019-02-24T22:26:59.893Z,79.40
2019-02-24T22:29:40.056Z,80.50
2019-02-24T22:32:19.963Z,81.10
2019-02-24T22:34:59.904Z,79.20
2019-02-24T22:37:39.712Z,78.80
2019-02-24T22:40:18.903Z,79.30
2019-02-24T22:42:58.845Z,79.90
2019-02-24T22:45:39.032Z,80.10
2019-02-24T22:48:18.997Z,80.10
2019-02-24T22:50:58.895Z,80.10
2019-02-24T22:53:38.881Z,80.20
2019-02-24T22:56:19.011Z,80.60
2019-02-24T22:58:58.945Z,80.50
2019-02-24T23:01:38.920Z,80.70
2019-02-24T23:04:18.996Z,80.60
2019-02-24T23:06:59.032Z,80.40
2019-02-24T23:09:39.053Z,80.00
2019-02-24T23:12:19.016Z,80.50
2019-02-24T23:14:59.005Z,81.20
2019-02-24T23:17:38.925Z,81.10
2019-02-24T23:20:18.822Z,81.40
2019-02-24T23:22:58.874Z,81.30
2019-02-24T23:25:38.805Z,81.50
2019-02-24T23:28:19.067Z,81.50
2019-02-24T23:30:59.034Z,81.40
2019-02-24T23:33:39.071Z,80.10
2019-02-24T23:36:18.943Z,80.40
2019-02-24T23:38:58.874Z,81.30
2019-02-24T23:41:39.006Z,81.60
2019-02-24T23:44:18.914Z,82.20
2019-02-24T23:46:58.802Z,83.30
2019-02-24T23:49:38.816Z,83.60
2019-02-24T23:52:18.861Z,83.60
2019-02-24T23:54:58.950Z,83.40
2019-02-24T23:57:38.769Z,82.90
